Terminal Aerodrome Forecast
Issued by NWS Sioux Falls, SD

Home | Current Version | Previous Version | Text Only | Print | Product List | Glossary Off
Versions: 1 2 3 4 5 6 7 8 9 10 11 12 13 14 15 16 17

360
FTUS43 KFSD 241003 AAA
TAFHON
TAF AMD
KHON 241003Z 2410/2506 VRB04KT 2SM BR SCT002
      TEMPO 2410/2413 1/4SM FG VV002
     FM241300 16006KT P6SM SCT200
     FM250000 15008KT P6SM SCT060 BKN150=

USA.gov is the U.S. government's official web portal to all federal, state and local government web resources and services.